Time;durP1;ratioP1;P1;durP2;ratioP2;P2;SDS_P1;SDS_P2;PMS_P1;PMS_P2;Temp;Humidity;BMP_temperature;BMP_pressure;BME280_temperature;BME280_humidity;BME280_pressure;Samples;Min_cycle;Max_cycle;Signal;HPM_P1;HPM_P2
2021/09/14 00:01:15;;;;;;;5.72;2.60;;;;;;;;;;5016890;28;20045;-69
2021/09/14 00:03:41;;;;;;;3.47;2.65;;;;;;;;;;5005650;28;20049;-69
2021/09/14 00:06:07;;;;;;;5.35;2.72;;;;;;;;;;5013876;28;20409;-69
2021/09/14 00:08:34;;;;;;;5.30;2.47;;;;;;;;;;5018151;28;21752;-69
2021/09/14 00:11:00;;;;;;;5.70;2.40;;;;;;;;;;5017639;28;20422;-69
2021/09/14 00:13:26;;;;;;;5.68;2.63;;;;;;;;;;5018646;28;20038;-69
2021/09/14 00:15:52;;;;;;;4.70;2.63;;;;;;;;;;5019466;28;20046;-69
2021/09/14 00:18:18;;;;;;;5.13;2.88;;;;;;;;;;5020299;28;20041;-69
2021/09/14 00:20:44;;;;;;;7.07;2.65;;;;;;;;;;5024224;28;20076;-68
2021/09/14 00:23:10;;;;;;;5.18;2.83;;;;;;;;;;5018895;28;20462;-69
2021/09/14 00:25:36;;;;;;;8.20;2.97;;;;;;;;;;5023445;28;20542;-69
2021/09/14 00:28:03;;;;;;;4.13;2.38;;;;;;;;;;5014878;28;20072;-69
2021/09/14 00:30:29;;;;;;;5.53;2.50;;;;;;;;;;5023663;28;20030;-69
2021/09/14 00:32:55;;;;;;;5.57;2.85;;;;;;;;;;5012449;28;20465;-69
2021/09/14 00:35:21;;;;;;;4.93;2.78;;;;;;;;;;5025887;28;20045;-69
2021/09/14 00:37:47;;;;;;;5.75;3.13;;;;;;;;;;5014495;28;20144;-69
2021/09/14 00:40:13;;;;;;;5.50;2.83;;;;;;;;;;5026453;28;20090;-69
2021/09/14 00:42:40;;;;;;;5.97;2.67;;;;;;;;;;5014580;28;20044;-69
2021/09/14 00:45:06;;;;;;;7.25;2.97;;;;;;;;;;5019484;28;20187;-69
2021/09/14 00:47:32;;;;;;;6.68;3.15;;;;;;;;;;5010878;28;20180;-69
2021/09/14 00:49:59;;;;;;;5.65;3.55;;;;;;;;;;5020408;28;20033;-69
2021/09/14 00:52:26;;;;;;;5.15;2.58;;;;;;;;;;5009288;28;20100;-69
2021/09/14 00:54:52;;;;;;;3.97;2.88;;;;;;;;;;5018123;28;20125;-69
2021/09/14 00:57:18;;;;;;;6.70;2.83;;;;;;;;;;5018157;28;20048;-69
2021/09/14 00:59:44;;;;;;;6.32;3.13;;;;;;;;;;5017165;28;20128;-69
2021/09/14 01:02:10;;;;;;;6.53;3.30;;;;;;;;;;5001889;28;20085;-69
2021/09/14 01:04:36;;;;;;;5.30;2.97;;;;;;;;;;5012052;28;20438;-69
2021/09/14 01:07:02;;;;;;;5.35;3.50;;;;;;;;;;5017508;28;20057;-69
2021/09/14 01:09:33;;;;;;;6.10;3.08;;;;;;;;;;5014712;28;20081;-69
2021/09/14 01:11:59;;;;;;;5.47;3.08;;;;;;;;;;5022031;28;20482;-69
2021/09/14 01:14:25;;;;;;;5.13;2.85;;;;;;;;;;5021928;28;20114;-69
2021/09/14 01:16:51;;;;;;;5.00;3.35;;;;;;;;;;5023546;28;20131;-69
2021/09/14 01:19:17;;;;;;;6.93;3.00;;;;;;;;;;5013686;28;20084;-68
2021/09/14 01:21:43;;;;;;;6.35;3.50;;;;;;;;;;5017756;28;20132;-69
2021/09/14 01:24:10;;;;;;;8.00;3.22;;;;;;;;;;5010553;28;20734;-69
2021/09/14 01:26:36;;;;;;;8.25;3.55;;;;;;;;;;5016176;28;20482;-68
2021/09/14 01:30:10;;;;;;;6.80;3.58;;;;;;;;;;5011702;28;20045;-69
2021/09/14 01:31:58;;;;;;;4.80;3.17;;;;;;;;;;5015766;28;20064;-69
2021/09/14 01:34:24;;;;;;;7.35;3.58;;;;;;;;;;5009396;28;20037;-69
2021/09/14 01:36:50;;;;;;;7.15;3.50;;;;;;;;;;5025311;28;20053;-69
2021/09/14 01:39:16;;;;;;;5.03;3.67;;;;;;;;;;5020722;28;20144;-69
2021/09/14 01:41:42;;;;;;;6.68;3.83;;;;;;;;;;5022251;28;20041;-69
2021/09/14 01:44:08;;;;;;;6.20;3.75;;;;;;;;;;5018480;28;20042;-69
2021/09/14 01:46:34;;;;;;;5.80;4.18;;;;;;;;;;5013606;28;20053;-69
2021/09/14 01:49:00;;;;;;;6.55;4.03;;;;;;;;;;5019039;28;20033;-69
2021/09/14 01:51:26;;;;;;;8.55;4.18;;;;;;;;;;5009825;28;20470;-68
2021/09/14 01:53:54;;;;;;;8.30;4.60;;;;;;;;;;5014332;28;20042;-68
2021/09/14 01:56:20;;;;;;;6.65;4.63;;;;;;;;;;5012695;28;20533;-68
2021/09/14 01:58:46;;;;;;;11.38;4.72;;;;;;;;;;5017315;28;20041;-68
2021/09/14 02:01:20;;;;;;;7.63;4.82;;;;;;;;;;5018577;28;20078;-69
2021/09/14 02:09:23;;;;;;;9.38;5.18;;;;;;;;;;5015049;28;20049;-69
2021/09/14 02:41:54;;;;;;;10.10;6.10;;;;;;;;;;5010364;28;20417;-68
2021/09/14 03:00:33;;;;;;;;;;;;;;;;;;5015979;28;20041;-67
2021/09/14 03:02:59;;;;;;;14.93;6.82;;;;;;;;;;5011232;28;19921;-68
2021/09/14 03:05:25;;;;;;;10.23;6.78;;;;;;;;;;5024097;28;20041;-67
2021/09/14 03:07:51;;;;;;;10.88;6.80;;;;;;;;;;5010225;28;20045;-67
2021/09/14 03:10:17;;;;;;;11.25;6.68;;;;;;;;;;5021423;28;20041;-68
2021/09/14 03:12:43;;;;;;;9.45;7.03;;;;;;;;;;5021765;28;20034;-68
2021/09/14 03:15:09;;;;;;;9.77;6.50;;;;;;;;;;5010225;28;20042;-67
2021/09/14 03:17:35;;;;;;;11.80;7.53;;;;;;;;;;5016087;28;20041;-68
2021/09/14 03:20:01;;;;;;;10.00;7.18;;;;;;;;;;5013137;28;20406;-67
2021/09/14 03:22:27;;;;;;;10.70;7.65;;;;;;;;;;5018873;28;20195;-67
2021/09/14 03:24:53;;;;;;;11.95;7.63;;;;;;;;;;5013711;28;20448;-67
2021/09/14 03:27:19;;;;;;;9.07;6.82;;;;;;;;;;5019713;28;20041;-67
2021/09/14 03:29:46;;;;;;;11.70;7.72;;;;;;;;;;5014872;28;20030;-67
2021/09/14 03:32:12;;;;;;;10.68;7.15;;;;;;;;;;5015400;28;20041;-67
2021/09/14 03:34:38;;;;;;;12.55;7.50;;;;;;;;;;5009127;28;20091;-67
2021/09/14 03:37:04;;;;;;;12.18;7.38;;;;;;;;;;5018394;28;20049;-67
2021/09/14 03:39:30;;;;;;;11.93;7.53;;;;;;;;;;5015852;28;20039;-67
2021/09/14 03:41:56;;;;;;;14.50;8.40;;;;;;;;;;5012369;28;20077;-67
2021/09/14 03:44:22;;;;;;;11.15;8.02;;;;;;;;;;5010969;28;20041;-67
2021/09/14 03:46:49;;;;;;;12.30;8.73;;;;;;;;;;5019506;28;20033;-67
2021/09/14 03:49:15;;;;;;;11.43;9.15;;;;;;;;;;5015575;28;20041;-67
2021/09/14 03:51:41;;;;;;;12.98;7.75;;;;;;;;;;5014223;28;20061;-67
2021/09/14 03:54:07;;;;;;;10.82;8.50;;;;;;;;;;5028689;28;20071;-67
2021/09/14 03:56:33;;;;;;;13.02;8.52;;;;;;;;;;5013741;28;20079;-67
2021/09/14 03:58:59;;;;;;;11.43;10.07;;;;;;;;;;5017495;28;20038;-67
2021/09/14 04:01:25;;;;;;;15.60;9.25;;;;;;;;;;5014625;28;20482;-67
2021/09/14 04:04:02;;;;;;;12.02;8.55;;;;;;;;;;5022167;28;20106;-67
2021/09/14 04:06:40;;;;;;;14.50;8.45;;;;;;;;;;5017060;28;20045;-67
2021/09/14 04:09:06;;;;;;;12.23;8.63;;;;;;;;;;5016187;28;20454;-67
2021/09/14 04:11:32;;;;;;;15.43;9.20;;;;;;;;;;5012482;28;20045;-67
2021/09/14 04:13:58;;;;;;;13.70;9.32;;;;;;;;;;5020886;28;20034;-67
2021/09/14 04:16:24;;;;;;;15.30;9.10;;;;;;;;;;5016308;28;20038;-67
2021/09/14 04:18:50;;;;;;;17.02;9.63;;;;;;;;;;5016534;28;20077;-67
2021/09/14 04:21:17;;;;;;;12.52;9.60;;;;;;;;;;5016031;28;20301;-67
2021/09/14 04:23:43;;;;;;;14.48;9.38;;;;;;;;;;5018715;28;20053;-67
2021/09/14 04:26:09;;;;;;;15.90;9.25;;;;;;;;;;5014734;28;20064;-67
2021/09/14 04:28:35;;;;;;;13.25;9.60;;;;;;;;;;5024902;28;20370;-67
2021/09/14 04:31:01;;;;;;;21.98;10.18;;;;;;;;;;5016084;28;20474;-67
2021/09/14 04:33:27;;;;;;;16.27;9.25;;;;;;;;;;5026932;28;20506;-67
2021/09/14 04:35:53;;;;;;;14.65;8.57;;;;;;;;;;5025194;28;20038;-67
2021/09/14 04:38:20;;;;;;;12.85;9.57;;;;;;;;;;5010920;28;20417;-67
2021/09/14 04:40:46;;;;;;;13.05;9.00;;;;;;;;;;5019402;28;20095;-67
2021/09/14 04:43:12;;;;;;;14.00;9.20;;;;;;;;;;5019485;28;20041;-67
2021/09/14 04:45:38;;;;;;;16.50;9.85;;;;;;;;;;5023020;28;20052;-67
2021/09/14 04:48:04;;;;;;;14.60;9.65;;;;;;;;;;5017948;28;20069;-67
2021/09/14 04:50:30;;;;;;;16.10;10.32;;;;;;;;;;5024011;28;20288;-67
2021/09/14 04:52:56;;;;;;;14.75;9.85;;;;;;;;;;5020072;28;20042;-67
2021/09/14 04:55:22;;;;;;;13.10;9.23;;;;;;;;;;5021716;28;20057;-67
2021/09/14 04:57:48;;;;;;;14.45;10.60;;;;;;;;;;5013535;28;20108;-67
2021/09/14 05:00:15;;;;;;;15.70;9.52;;;;;;;;;;5024489;28;20067;-67
2021/09/14 05:02:41;;;;;;;14.65;10.68;;;;;;;;;;5016208;28;20172;-67
2021/09/14 05:05:07;;;;;;;17.08;10.02;;;;;;;;;;5020753;28;20100;-67
2021/09/14 05:07:33;;;;;;;18.02;10.85;;;;;;;;;;5015064;28;20281;-67
2021/09/14 05:09:59;;;;;;;14.82;10.70;;;;;;;;;;5023513;28;20068;-67
2021/09/14 05:12:25;;;;;;;20.63;11.48;;;;;;;;;;5015296;28;20040;-67
2021/09/14 05:14:51;;;;;;;21.38;10.32;;;;;;;;;;5022967;28;20053;-67
2021/09/14 05:17:17;;;;;;;15.48;11.13;;;;;;;;;;5019462;28;20285;-67
2021/09/14 05:19:45;;;;;;;17.40;10.05;;;;;;;;;;5016271;28;20041;-67
2021/09/14 05:22:12;;;;;;;15.82;10.48;;;;;;;;;;5025489;28;20486;-68
2021/09/14 05:24:38;;;;;;;15.88;10.93;;;;;;;;;;5008917;28;20398;-67
2021/09/14 05:27:05;;;;;;;18.02;10.20;;;;;;;;;;5021806;28;20084;-67
2021/09/14 05:29:31;;;;;;;17.40;13.48;;;;;;;;;;5016913;28;20575;-67
2021/09/14 05:31:57;;;;;;;16.00;11.35;;;;;;;;;;5012407;28;20157;-67
2021/09/14 05:34:24;;;;;;;16.13;11.27;;;;;;;;;;5016192;28;20049;-67
2021/09/14 05:36:50;;;;;;;17.20;11.20;;;;;;;;;;5024186;28;20052;-67
2021/09/14 05:39:16;;;;;;;16.77;10.95;;;;;;;;;;5020540;28;20160;-67
2021/09/14 05:41:42;;;;;;;17.85;11.52;;;;;;;;;;5024787;28;20048;-67
2021/09/14 05:44:09;;;;;;;17.05;11.32;;;;;;;;;;5017417;28;20516;-67
2021/09/14 05:46:37;;;;;;;15.60;11.48;;;;;;;;;;5029121;28;20041;-67
2021/09/14 05:49:03;;;;;;;15.43;11.23;;;;;;;;;;5019970;28;20049;-67
2021/09/14 05:51:29;;;;;;;17.33;11.90;;;;;;;;;;5023048;28;20037;-68
2021/09/14 05:53:55;;;;;;;19.25;11.00;;;;;;;;;;5024575;28;20048;-67
2021/09/14 05:56:21;;;;;;;18.50;12.43;;;;;;;;;;5023270;28;20176;-67
2021/09/14 05:58:48;;;;;;;19.45;11.10;;;;;;;;;;5026202;28;20068;-67
2021/09/14 06:01:14;;;;;;;15.85;11.05;;;;;;;;;;5020006;28;20183;-67
2021/09/14 06:03:40;;;;;;;14.75;11.40;;;;;;;;;;5029406;28;20080;-67
2021/09/14 06:06:09;;;;;;;13.40;11.48;;;;;;;;;;5021234;28;20119;-67
2021/09/14 06:08:35;;;;;;;15.85;12.23;;;;;;;;;;5025868;28;20203;-67
2021/09/14 06:11:02;;;;;;;19.33;12.50;;;;;;;;;;5018999;28;20124;-67
2021/09/14 06:13:28;;;;;;;17.00;11.98;;;;;;;;;;5020685;28;20038;-67
2021/09/14 06:15:54;;;;;;;15.27;11.35;;;;;;;;;;5010790;28;20037;-67
2021/09/14 06:18:20;;;;;;;16.60;11.30;;;;;;;;;;5019512;28;20478;-67
2021/09/14 06:20:46;;;;;;;14.65;11.27;;;;;;;;;;5015198;28;20051;-67
2021/09/14 06:23:12;;;;;;;16.30;11.45;;;;;;;;;;5021612;28;20523;-67
2021/09/14 06:25:38;;;;;;;19.17;11.40;;;;;;;;;;5007734;28;20042;-67
2021/09/14 06:28:05;;;;;;;16.20;11.10;;;;;;;;;;5018350;28;20057;-67
2021/09/14 06:30:31;;;;;;;15.02;10.88;;;;;;;;;;5010692;28;20050;-67
2021/09/14 06:32:57;;;;;;;16.50;11.45;;;;;;;;;;5015153;28;20033;-67
2021/09/14 06:35:23;;;;;;;16.55;11.18;;;;;;;;;;5016603;28;20101;-67
2021/09/14 06:37:49;;;;;;;16.65;11.88;;;;;;;;;;5012989;28;20048;-68
2021/09/14 06:40:16;;;;;;;14.45;11.65;;;;;;;;;;5005367;28;20059;-68
2021/09/14 06:42:42;;;;;;;13.20;10.77;;;;;;;;;;5021123;28;20037;-68
2021/09/14 06:45:10;;;;;;;16.48;11.20;;;;;;;;;;5024088;28;20108;-68
2021/09/14 06:47:36;;;;;;;14.85;11.73;;;;;;;;;;5018524;28;20549;-68
2021/09/14 06:50:02;;;;;;;13.75;11.43;;;;;;;;;;5027301;28;20465;-68
2021/09/14 06:52:28;;;;;;;17.65;11.55;;;;;;;;;;5018697;28;20033;-68
2021/09/14 06:54:54;;;;;;;18.90;11.82;;;;;;;;;;5023159;28;20038;-67
2021/09/14 06:57:20;;;;;;;14.25;12.02;;;;;;;;;;5020405;28;20041;-67
2021/09/14 06:59:46;;;;;;;14.65;11.05;;;;;;;;;;5022799;28;20057;-66
2021/09/14 07:02:14;;;;;;;13.27;10.80;;;;;;;;;;5016438;28;20073;-67
2021/09/14 07:04:40;;;;;;;17.13;11.25;;;;;;;;;;5021047;28;20108;-67
2021/09/14 07:07:06;;;;;;;14.25;12.07;;;;;;;;;;5020117;28;20076;-68
2021/09/14 07:09:32;;;;;;;15.57;11.60;;;;;;;;;;5022067;28;20037;-67
2021/09/14 07:11:59;;;;;;;13.93;11.23;;;;;;;;;;5024535;28;20327;-68
2021/09/14 07:14:25;;;;;;;16.60;12.27;;;;;;;;;;5022380;28;20042;-67
2021/09/14 07:16:51;;;;;;;15.60;11.30;;;;;;;;;;5022966;28;20048;-67
2021/09/14 07:19:17;;;;;;;15.23;11.50;;;;;;;;;;5002819;28;20064;-68
2021/09/14 07:21:43;;;;;;;13.35;10.60;;;;;;;;;;5023797;28;20034;-68
2021/09/14 07:24:09;;;;;;;13.50;11.20;;;;;;;;;;5016514;28;20464;-68
2021/09/14 07:26:36;;;;;;;11.90;10.05;;;;;;;;;;5026768;28;20390;-67
2021/09/14 07:29:02;;;;;;;14.57;10.70;;;;;;;;;;5018261;28;20505;-67
2021/09/14 07:31:30;;;;;;;12.48;10.02;;;;;;;;;;5024833;28;20045;-68
2021/09/14 07:33:56;;;;;;;14.63;10.25;;;;;;;;;;5021085;28;20074;-68
2021/09/14 07:36:22;;;;;;;13.20;10.00;;;;;;;;;;5022000;28;20033;-68
2021/09/14 07:38:49;;;;;;;12.80;9.98;;;;;;;;;;5015709;28;20076;-68
2021/09/14 07:41:15;;;;;;;10.10;8.77;;;;;;;;;;5031944;28;20581;-67
2021/09/14 07:43:41;;;;;;;12.32;10.23;;;;;;;;;;5021628;28;20045;-68
2021/09/14 07:46:09;;;;;;;12.32;9.38;;;;;;;;;;5027140;28;20136;-68
2021/09/14 07:48:36;;;;;;;10.82;9.73;;;;;;;;;;5024041;28;20049;-68
2021/09/14 07:51:02;;;;;;;10.60;8.75;;;;;;;;;;5023973;28;20038;-68
2021/09/14 07:53:28;;;;;;;12.68;9.40;;;;;;;;;;5021047;28;20038;-68
2021/09/14 07:55:54;;;;;;;11.40;9.07;;;;;;;;;;5012669;28;20030;-68
2021/09/14 07:58:20;;;;;;;11.48;9.45;;;;;;;;;;5016139;28;20379;-69
2021/09/14 08:00:46;;;;;;;10.77;9.02;;;;;;;;;;5015556;28;20528;-68
2021/09/14 08:03:12;;;;;;;10.10;8.10;;;;;;;;;;5017273;28;20505;-68
2021/09/14 08:05:39;;;;;;;13.65;9.18;;;;;;;;;;5010132;28;20080;-68
2021/09/14 08:08:06;;;;;;;12.15;8.38;;;;;;;;;;5018326;28;20048;-68
2021/09/14 08:10:32;;;;;;;9.00;7.68;;;;;;;;;;5014368;28;20184;-68
2021/09/14 08:12:58;;;;;;;11.68;8.40;;;;;;;;;;5026823;28;20156;-68
2021/09/14 08:15:24;;;;;;;9.45;8.50;;;;;;;;;;5012907;28;20084;-68
2021/09/14 08:17:50;;;;;;;9.63;8.05;;;;;;;;;;5019066;28;20438;-67
2021/09/14 08:20:16;;;;;;;11.30;7.97;;;;;;;;;;5014468;28;20478;-68
2021/09/14 08:22:42;;;;;;;10.30;7.80;;;;;;;;;;5026381;28;20148;-68
2021/09/14 08:25:09;;;;;;;8.82;7.68;;;;;;;;;;5012761;28;20041;-67
2021/09/14 08:27:35;;;;;;;9.75;7.47;;;;;;;;;;5020913;28;20061;-67
2021/09/14 08:30:02;;;;;;;9.60;7.88;;;;;;;;;;5014240;28;20125;-67
2021/09/14 08:32:28;;;;;;;8.63;7.47;;;;;;;;;;5014716;28;20092;-67
2021/09/14 08:34:54;;;;;;;8.27;7.45;;;;;;;;;;5017025;28;20089;-67
2021/09/14 08:37:20;;;;;;;7.90;7.10;;;;;;;;;;5018862;28;20136;-67
2021/09/14 08:39:46;;;;;;;9.13;7.70;;;;;;;;;;5014914;28;20045;-67
2021/09/14 08:42:13;;;;;;;10.40;7.32;;;;;;;;;;5010359;28;20092;-67
2021/09/14 08:44:41;;;;;;;8.70;7.63;;;;;;;;;;5016761;28;20118;-67
2021/09/14 08:47:07;;;;;;;9.70;7.20;;;;;;;;;;5012735;28;20045;-68
2021/09/14 08:49:34;;;;;;;8.48;7.38;;;;;;;;;;5025574;28;20410;-68
2021/09/14 08:52:00;;;;;;;7.78;6.97;;;;;;;;;;5019358;28;20076;-67
2021/09/14 08:54:26;;;;;;;9.65;6.22;;;;;;;;;;5019918;28;20034;-68
2021/09/14 08:56:53;;;;;;;7.80;6.65;;;;;;;;;;5014292;28;20125;-68
2021/09/14 08:59:29;;;;;;;9.48;6.63;;;;;;;;;;5028818;28;20041;-67
2021/09/14 09:01:59;;;;;;;7.15;6.43;;;;;;;;;;5016113;28;20092;-68
2021/09/14 09:04:25;;;;;;;11.63;7.25;;;;;;;;;;5017765;28;20053;-68
2021/09/14 09:06:52;;;;;;;9.95;7.03;;;;;;;;;;5010969;28;20100;-68
2021/09/14 09:09:19;;;;;;;8.80;6.70;;;;;;;;;;5014634;28;20053;-68
2021/09/14 09:11:55;;;;;;;7.22;6.38;;;;;;;;;;5011354;28;20129;-68
2021/09/14 09:14:40;;;;;;;6.72;6.03;;;;;;;;;;5016624;28;20042;-68
2021/09/14 09:17:11;;;;;;;6.82;5.40;;;;;;;;;;5011061;28;20127;-68
2021/09/14 09:19:38;;;;;;;6.47;5.85;;;;;;;;;;5015971;28;20041;-67
2021/09/14 09:22:04;;;;;;;8.77;6.10;;;;;;;;;;5013054;28;20152;-68
2021/09/14 09:24:30;;;;;;;8.10;6.53;;;;;;;;;;5017987;28;20112;-67
2021/09/14 09:26:58;;;;;;;8.13;6.43;;;;;;;;;;5024460;28;20069;-67
2021/09/14 09:29:24;;;;;;;8.68;6.40;;;;;;;;;;5010386;28;20052;-67
2021/09/14 09:31:51;;;;;;;7.10;6.30;;;;;;;;;;5018081;28;20498;-67
2021/09/14 09:34:24;;;;;;;6.93;6.03;;;;;;;;;;5012840;28;20382;-67
2021/09/14 09:36:53;;;;;;;7.73;6.27;;;;;;;;;;5014914;28;20049;-67
2021/09/14 09:39:19;;;;;;;8.45;5.97;;;;;;;;;;5009734;28;20585;-67
2021/09/14 09:41:55;;;;;;;8.75;6.25;;;;;;;;;;5017470;28;20061;-67
2021/09/14 09:44:21;;;;;;;8.77;6.63;;;;;;;;;;5012674;28;20053;-67
2021/09/14 09:47:00;;;;;;;7.57;6.55;;;;;;;;;;5017268;28;20049;-67
2021/09/14 09:49:27;;;;;;;10.13;6.88;;;;;;;;;;5017693;28;20049;-68
2021/09/14 09:51:53;;;;;;;7.90;6.50;;;;;;;;;;5018189;28;20042;-68
2021/09/14 09:54:20;;;;;;;11.40;6.82;;;;;;;;;;5010272;28;20038;-68
2021/09/14 09:56:46;;;;;;;8.65;6.25;;;;;;;;;;5016652;28;20096;-68
2021/09/14 09:59:13;;;;;;;7.55;5.53;;;;;;;;;;5011394;28;20573;-67
2021/09/14 10:01:40;;;;;;;8.40;6.45;;;;;;;;;;5024352;28;20101;-67
2021/09/14 10:04:06;;;;;;;7.72;6.18;;;;;;;;;;5014910;28;20042;-68
2021/09/14 10:06:34;;;;;;;7.82;6.63;;;;;;;;;;5016708;28;20056;-68
2021/09/14 10:09:00;;;;;;;7.75;6.45;;;;;;;;;;5011076;28;20117;-68
2021/09/14 10:11:27;;;;;;;6.90;6.30;;;;;;;;;;5016762;28;20067;-68
2021/09/14 10:14:04;;;;;;;7.90;6.70;;;;;;;;;;5023252;28;20063;-67
2021/09/14 10:16:35;;;;;;;7.30;6.03;;;;;;;;;;5019541;28;20224;-68
2021/09/14 10:19:08;;;;;;;6.97;5.97;;;;;;;;;;5016695;28;20435;-68
2021/09/14 10:21:34;;;;;;;7.23;5.70;;;;;;;;;;5010035;28;20041;-68
2021/09/14 10:24:00;;;;;;;6.47;5.80;;;;;;;;;;5023540;28;20183;-67
2021/09/14 10:26:36;;;;;;;6.60;5.85;;;;;;;;;;5011834;28;20522;-68
2021/09/14 10:29:13;;;;;;;7.60;5.50;;;;;;;;;;5026092;28;20576;-68
2021/09/14 10:31:39;;;;;;;7.93;6.07;;;;;;;;;;5015435;28;20031;-68
2021/09/14 10:34:07;;;;;;;6.50;5.28;;;;;;;;;;5027974;28;20112;-68
2021/09/14 10:36:34;;;;;;;8.05;5.22;;;;;;;;;;5019758;28;20034;-68
2021/09/14 10:39:00;;;;;;;6.13;5.40;;;;;;;;;;5020737;28;20052;-68
2021/09/14 10:41:40;;;;;;;6.30;5.07;;;;;;;;;;5013536;28;20079;-68
2021/09/14 10:44:09;;;;;;;8.98;5.15;;;;;;;;;;5018988;28;20405;-68
2021/09/14 10:46:36;;;;;;;8.38;5.15;;;;;;;;;;5018965;28;20128;-68
2021/09/14 10:49:12;;;;;;;7.47;5.40;;;;;;;;;;5024369;28;20442;-68
2021/09/14 10:51:38;;;;;;;6.30;5.45;;;;;;;;;;5015804;28;20459;-68
2021/09/14 10:54:05;;;;;;;5.90;5.20;;;;;;;;;;5016220;28;20073;-68
2021/09/14 10:56:31;;;;;;;5.65;4.88;;;;;;;;;;5011549;28;20036;-68
2021/09/14 10:58:57;;;;;;;5.88;5.28;;;;;;;;;;5022546;28;20137;-68
2021/09/14 11:01:24;;;;;;;5.88;5.32;;;;;;;;;;5021968;28;20513;-68
2021/09/14 11:04:05;;;;;;;6.32;5.35;;;;;;;;;;5020190;28;20132;-68
2021/09/14 11:06:31;;;;;;;5.18;4.65;;;;;;;;;;5018505;28;20124;-68
2021/09/14 11:08:58;;;;;;;5.57;5.05;;;;;;;;;;5015095;28;20038;-69
2021/09/14 11:11:24;;;;;;;7.70;4.85;;;;;;;;;;5008916;28;20053;-68
2021/09/14 11:13:50;;;;;;;5.90;4.50;;;;;;;;;;5022538;28;20482;-68
2021/09/14 11:16:17;;;;;;;8.07;5.20;;;;;;;;;;5028647;28;20192;-68
2021/09/14 11:18:44;;;;;;;6.13;4.53;;;;;;;;;;5018156;28;20518;-68
2021/09/14 11:21:11;;;;;;;6.15;4.45;;;;;;;;;;5020624;28;20125;-67
2021/09/14 11:23:38;;;;;;;6.82;5.78;;;;;;;;;;5014778;28;20187;-68
2021/09/14 11:26:06;;;;;;;6.97;4.50;;;;;;;;;;5025774;28;20049;-67
2021/09/14 11:28:32;;;;;;;5.32;4.30;;;;;;;;;;5016670;28;20041;-67
2021/09/14 11:31:00;;;;;;;6.70;5.20;;;;;;;;;;5020539;28;20052;-67
2021/09/14 11:33:26;;;;;;;6.53;5.50;;;;;;;;;;5037864;28;20038;-67
2021/09/14 11:35:53;;;;;;;8.02;5.40;;;;;;;;;;5025881;28;20041;-68
2021/09/14 11:38:19;;;;;;;5.85;4.65;;;;;;;;;;5021863;28;20119;-67
2021/09/14 11:40:47;;;;;;;5.70;4.30;;;;;;;;;;5021486;28;20050;-68
2021/09/14 11:43:21;;;;;;;5.32;4.25;;;;;;;;;;5015049;28;20041;-68
2021/09/14 11:45:48;;;;;;;5.57;4.43;;;;;;;;;;5022760;28;20044;-68
2021/09/14 11:48:22;;;;;;;6.22;4.57;;;;;;;;;;5022691;28;20038;-68
2021/09/14 11:50:48;;;;;;;5.93;4.45;;;;;;;;;;5022028;28;20113;-68
2021/09/14 11:53:15;;;;;;;6.70;4.38;;;;;;;;;;5016040;28;20379;-68
2021/09/14 11:55:51;;;;;;;5.30;4.22;;;;;;;;;;5022995;28;20047;-68
2021/09/14 11:58:37;;;;;;;5.30;3.92;;;;;;;;;;5014148;28;20548;-69
2021/09/14 12:01:08;;;;;;;4.68;4.15;;;;;;;;;;5029936;28;20112;-69
2021/09/14 12:03:36;;;;;;;5.78;4.53;;;;;;;;;;5014260;28;20518;-69
2021/09/14 12:06:05;;;;;;;5.70;4.03;;;;;;;;;;5025896;28;20041;-69
2021/09/14 12:08:32;;;;;;;5.38;3.97;;;;;;;;;;5011744;28;20104;-68
2021/09/14 12:10:58;;;;;;;7.72;4.50;;;;;;;;;;5030877;28;20039;-68
2021/09/14 12:13:24;;;;;;;6.03;4.13;;;;;;;;;;5023425;28;20042;-68
2021/09/14 12:15:57;;;;;;;6.30;4.85;;;;;;;;;;5019592;28;20096;-69
2021/09/14 12:18:24;;;;;;;5.32;4.30;;;;;;;;;;5019201;28;20045;-69
2021/09/14 12:20:50;;;;;;;7.35;4.35;;;;;;;;;;5018705;28;20046;-69
2021/09/14 12:23:16;;;;;;;5.30;4.28;;;;;;;;;;5026451;28;20073;-68
2021/09/14 12:25:43;;;;;;;6.07;4.60;;;;;;;;;;5011519;28;20049;-68
2021/09/14 12:28:09;;;;;;;5.97;4.95;;;;;;;;;;5026883;28;20120;-68
2021/09/14 12:30:36;;;;;;;7.25;4.95;;;;;;;;;;5013900;28;20099;-68
2021/09/14 12:33:02;;;;;;;4.93;4.50;;;;;;;;;;5019536;28;20049;-68
2021/09/14 12:35:28;;;;;;;5.22;4.30;;;;;;;;;;5013860;28;20471;-69
2021/09/14 12:37:54;;;;;;;5.18;4.68;;;;;;;;;;5018107;28;20054;-68
2021/09/14 12:40:20;;;;;;;5.95;4.88;;;;;;;;;;5016384;28;20034;-68
2021/09/14 12:42:46;;;;;;;6.72;4.60;;;;;;;;;;5016400;28;20446;-68
2021/09/14 12:45:12;;;;;;;5.03;3.92;;;;;;;;;;5013324;28;20045;-68
2021/09/14 12:47:39;;;;;;;6.38;4.43;;;;;;;;;;5018904;28;20052;-68
2021/09/14 12:50:06;;;;;;;7.45;4.32;;;;;;;;;;5014339;28;20482;-68
2021/09/14 12:52:32;;;;;;;5.72;4.63;;;;;;;;;;5015837;28;20040;-68
2021/09/14 12:54:58;;;;;;;4.78;4.28;;;;;;;;;;5024933;28;20053;-68
2021/09/14 12:57:24;;;;;;;5.60;4.20;;;;;;;;;;5012211;28;20486;-69
2021/09/14 12:59:50;;;;;;;5.10;4.30;;;;;;;;;;5016199;28;20114;-69
2021/09/14 13:02:17;;;;;;;4.43;3.80;;;;;;;;;;5020062;28;20417;-68
2021/09/14 13:04:43;;;;;;;5.57;3.65;;;;;;;;;;5026385;28;20037;-68
2021/09/14 13:07:09;;;;;;;5.30;4.28;;;;;;;;;;5012166;28;20493;-68
2021/09/14 13:09:35;;;;;;;5.20;4.15;;;;;;;;;;5023197;28;20575;-68
2021/09/14 13:12:01;;;;;;;4.75;3.58;;;;;;;;;;5015623;28;20175;-68
2021/09/14 13:17:13;;;;;;;3.75;3.38;;;;;;;;;;5011515;28;20065;-68
2021/09/14 13:19:39;;;;;;;4.35;3.70;;;;;;;;;;5015270;28;20041;-68
2021/09/14 13:22:05;;;;;;;5.38;3.72;;;;;;;;;;5018571;28;20064;-68
2021/09/14 13:24:31;;;;;;;4.68;3.65;;;;;;;;;;5016532;28;20037;-68
2021/09/14 13:26:57;;;;;;;5.28;3.80;;;;;;;;;;5011394;28;21151;-68
2021/09/14 13:29:24;;;;;;;6.28;4.18;;;;;;;;;;5014715;28;20041;-68
2021/09/14 13:31:50;;;;;;;5.15;4.45;;;;;;;;;;5010388;28;20033;-68
2021/09/14 13:34:16;;;;;;;5.22;3.42;;;;;;;;;;5016795;28;20037;-68
2021/09/14 13:36:42;;;;;;;4.93;3.70;;;;;;;;;;5000526;28;20060;-68
2021/09/14 13:39:08;;;;;;;6.57;4.10;;;;;;;;;;5019711;28;20506;-68
2021/09/14 13:41:41;;;;;;;4.38;3.55;;;;;;;;;;5017173;28;20473;-68
2021/09/14 13:46:52;;;;;;;5.03;4.40;;;;;;;;;;5017807;28;20053;-68
2021/09/14 13:49:18;;;;;;;4.50;3.80;;;;;;;;;;5015609;28;20040;-67
2021/09/14 13:51:45;;;;;;;5.38;4.43;;;;;;;;;;5020399;28;20474;-68
2021/09/14 13:54:11;;;;;;;4.82;4.43;;;;;;;;;;5019132;28;20095;-69
2021/09/14 13:56:37;;;;;;;5.10;4.15;;;;;;;;;;5015962;28;20046;-68
2021/09/14 13:59:03;;;;;;;6.00;4.05;;;;;;;;;;5015372;28;20053;-66
2021/09/14 14:01:29;;;;;;;6.82;4.50;;;;;;;;;;5021028;28;20037;-66
2021/09/14 14:03:56;;;;;;;5.82;3.95;;;;;;;;;;5012005;28;20103;-65
2021/09/14 14:06:23;;;;;;;7.30;4.63;;;;;;;;;;5020959;28;20040;-65
2021/09/14 14:08:49;;;;;;;5.32;4.45;;;;;;;;;;5015901;28;20053;-65
2021/09/14 14:11:16;;;;;;;4.80;4.40;;;;;;;;;;5019047;28;20037;-65
2021/09/14 14:13:42;;;;;;;6.32;5.40;;;;;;;;;;5018497;28;20083;-65
2021/09/14 14:16:09;;;;;;;5.95;5.03;;;;;;;;;;5021454;28;20038;-65
2021/09/14 14:18:35;;;;;;;6.45;5.05;;;;;;;;;;5012383;28;20140;-65
2021/09/14 14:21:01;;;;;;;6.32;4.90;;;;;;;;;;5016979;28;20045;-65
2021/09/14 14:23:28;;;;;;;6.55;4.95;;;;;;;;;;5015324;28;20133;-65
2021/09/14 14:25:54;;;;;;;6.72;5.38;;;;;;;;;;5016892;28;20045;-65
2021/09/14 14:28:20;;;;;;;6.28;5.15;;;;;;;;;;5021966;28;20502;-65
2021/09/14 14:30:46;;;;;;;5.18;4.65;;;;;;;;;;5016982;28;20439;-66
2021/09/14 14:33:12;;;;;;;5.75;5.25;;;;;;;;;;5016324;28;20044;-66
2021/09/14 14:35:38;;;;;;;6.70;5.13;;;;;;;;;;5013763;28;20038;-66
2021/09/14 14:38:04;;;;;;;6.75;5.25;;;;;;;;;;5018417;28;20152;-67
2021/09/14 14:40:31;;;;;;;5.88;5.38;;;;;;;;;;5014607;28;20077;-66
2021/09/14 14:42:57;;;;;;;8.82;4.97;;;;;;;;;;5017132;28;20045;-66
2021/09/14 14:45:23;;;;;;;6.68;5.75;;;;;;;;;;5012702;28;20037;-67
2021/09/14 14:47:49;;;;;;;7.15;5.82;;;;;;;;;;5024236;28;20044;-66
2021/09/14 14:50:16;;;;;;;6.45;5.45;;;;;;;;;;5015568;28;20545;-66
2021/09/14 14:52:42;;;;;;;7.20;5.22;;;;;;;;;;5023589;28;20075;-66
2021/09/14 14:55:08;;;;;;;6.22;5.32;;;;;;;;;;5018088;28;20053;-66
2021/09/14 14:57:34;;;;;;;6.72;5.70;;;;;;;;;;5023971;28;20098;-66
2021/09/14 15:00:00;;;;;;;6.90;6.30;;;;;;;;;;5022004;28;20087;-66
2021/09/14 15:02:26;;;;;;;6.38;5.30;;;;;;;;;;5015408;28;20073;-66
2021/09/14 15:04:53;;;;;;;11.68;6.38;;;;;;;;;;5020124;28;20049;-66
2021/09/14 15:07:19;;;;;;;6.20;5.60;;;;;;;;;;5011683;28;20050;-66
2021/09/14 15:09:45;;;;;;;8.02;5.32;;;;;;;;;;5016932;28;20045;-66
2021/09/14 15:12:11;;;;;;;10.60;6.03;;;;;;;;;;5012286;28;20098;-66
2021/09/14 15:14:37;;;;;;;7.15;6.45;;;;;;;;;;5021912;28;20438;-66
2021/09/14 15:17:03;;;;;;;7.43;5.97;;;;;;;;;;5017036;28;20124;-70
2021/09/14 15:19:29;;;;;;;7.25;5.63;;;;;;;;;;5022372;28;20045;-67
2021/09/14 15:21:55;;;;;;;7.53;6.50;;;;;;;;;;5017466;28;20077;-66
2021/09/14 15:24:21;;;;;;;6.30;5.70;;;;;;;;;;5021941;28;20064;-67
2021/09/14 15:26:47;;;;;;;6.82;6.18;;;;;;;;;;5015692;28;20040;-67
2021/09/14 15:29:13;;;;;;;8.13;6.07;;;;;;;;;;5019165;28;20045;-66
2021/09/14 15:31:39;;;;;;;6.20;5.60;;;;;;;;;;5012092;28;20049;-66